Time;durP1;ratioP1;P1;durP2;ratioP2;P2;SDS_P1;SDS_P2;PMS_P1;PMS_P2;Temp;Humidity;BMP_temperature;BMP_pressure;BME280_temperature;BME280_humidity;BME280_pressure;Samples;Min_cycle;Max_cycle;Signal;HPM_P1;HPM_P2
2021/06/12 00:00:32;;;;;;;33.80;21.17;;;17.20;99.90;;;;;;4785847;30;20058;-91
2021/06/12 00:03:18;;;;;;;30.15;20.05;;;17.20;99.90;;;;;;4773996;30;20112;-92
2021/06/12 00:05:44;;;;;;;35.88;22.35;;;17.20;99.90;;;;;;4792616;29;20062;-89
2021/06/12 00:08:30;;;;;;;30.35;19.77;;;17.20;99.90;;;;;;4770291;30;20146;-91
2021/06/12 00:11:16;;;;;;;33.88;20.38;;;17.20;99.90;;;;;;4760750;30;20048;-91
2021/06/12 00:14:02;;;;;;;33.95;21.52;;;17.20;99.90;;;;;;4760360;30;20810;-92
2021/06/12 00:16:48;;;;;;;32.15;21.73;;;17.20;99.90;;;;;;4762074;30;20051;-92
2021/06/12 00:19:34;;;;;;;31.73;20.75;;;17.20;99.90;;;;;;4772358;30;20497;-90
2021/06/12 00:22:02;;;;;;;36.15;22.25;;;17.10;99.90;;;;;;4784850;30;20144;-89
2021/06/12 00:24:30;;;;;;;35.22;21.70;;;17.20;99.90;;;;;;4769688;30;20083;-90
2021/06/12 00:26:57;;;;;;;35.47;22.73;;;17.20;99.90;;;;;;4785538;29;20047;-89
2021/06/12 00:29:25;;;;;;;33.45;22.13;;;17.20;99.90;;;;;;4770328;30;20043;-90
2021/06/12 00:31:52;;;;;;;41.22;22.88;;;17.20;99.90;;;;;;4784572;30;20046;-89
2021/06/12 00:34:18;;;;;;;41.13;22.70;;;17.10;99.90;;;;;;4784953;29;20046;-91
2021/06/12 00:36:45;;;;;;;34.05;22.25;;;17.10;99.90;;;;;;4773048;30;20040;-89
2021/06/12 00:39:28;;;;;;;39.47;23.40;;;17.10;99.90;;;;;;4788188;30;20051;-90
2021/06/12 00:41:55;;;;;;;36.95;22.17;;;17.10;99.90;;;;;;4788733;30;20051;-90
2021/06/12 00:44:21;;;;;;;42.78;23.30;;;17.20;99.90;;;;;;4788313;30;20413;-89
2021/06/12 00:46:47;;;;;;;38.80;23.30;;;17.20;99.90;;;;;;4788011;30;20118;-90
2021/06/12 00:49:14;;;;;;;44.20;24.15;;;17.20;99.90;;;;;;4788323;29;20059;-91
2021/06/12 00:51:42;;;;;;;43.00;24.52;;;17.20;99.90;;;;;;4773179;30;20496;-93
2021/06/12 00:54:08;;;;;;;36.85;23.55;;;17.20;99.90;;;;;;4758969;30;20054;-89
2021/06/12 00:56:36;;;;;;;43.03;24.40;;;17.20;99.90;;;;;;4773184;30;20051;-91
2021/06/12 00:59:03;;;;;;;42.22;24.13;;;17.20;99.90;;;;;;4788508;29;20055;-90
2021/06/12 01:01:34;;;;;;;45.17;25.42;;;17.20;99.90;;;;;;4788536;30;20090;-90
2021/06/12 01:04:03;;;;;;;41.63;23.07;;;17.20;99.90;;;;;;4789094;29;20574;-90
2021/06/12 01:06:43;;;;;;;43.60;25.00;;;17.20;99.90;;;;;;4788357;30;20128;-91
2021/06/12 01:09:29;;;;;;;43.58;26.98;;;17.20;99.90;;;;;;4785876;30;20055;-89
2021/06/12 01:12:15;;;;;;;41.15;25.55;;;17.20;99.90;;;;;;4788440;30;20055;-91
2021/06/12 01:14:48;;;;;;;44.13;25.75;;;17.20;99.90;;;;;;4788322;30;20130;-89
2021/06/12 01:17:48;;;;;;;48.15;26.60;;;17.20;99.90;;;;;;4775792;30;20070;-90
2021/06/12 01:20:44;;;;;;;43.50;25.23;;;17.20;99.90;;;;;;4788161;30;20500;-89
2021/06/12 01:24:07;;;;;;;43.10;25.15;;;17.20;99.90;;;;;;4766422;30;20652;-92
2021/06/12 01:27:07;;;;;;;47.65;25.13;;;17.20;99.90;;;;;;4790796;29;20051;-89
2021/06/12 01:30:18;;;;;;;47.75;26.80;;;17.10;99.90;;;;;;4787410;30;20501;-91
2021/06/12 01:33:10;;;;;;;51.40;28.52;;;17.10;99.90;;;;;;4774693;30;20055;-90
2021/06/12 01:36:03;;;;;;;52.60;28.00;;;17.10;99.90;;;;;;4786453;30;20511;-89
2021/06/12 01:38:50;;;;;;;50.42;29.05;;;17.10;99.90;;;;;;4786557;30;20047;-90
2021/06/12 01:41:37;;;;;;;48.70;28.60;;;17.10;99.90;;;;;;4788121;30;20047;-92
2021/06/12 01:44:25;;;;;;;46.50;26.50;;;17.10;99.90;;;;;;4763642;30;20062;-92
2021/06/12 01:47:13;;;;;;;52.70;27.92;;;17.10;99.90;;;;;;4774856;30;20112;-91
2021/06/12 01:50:01;;;;;;;48.80;27.83;;;17.00;99.90;;;;;;4774936;30;22470;-92
2021/06/12 01:52:42;;;;;;;46.22;27.90;;;17.00;99.90;;;;;;4793532;29;20047;-92
2021/06/12 01:55:33;;;;;;;45.03;27.15;;;17.00;99.90;;;;;;4763225;30;20101;-90
2021/06/12 01:58:22;;;;;;;53.20;28.48;;;17.00;99.90;;;;;;4762512;30;20063;-91
2021/06/12 02:01:11;;;;;;;49.70;28.95;;;17.00;99.90;;;;;;4774629;30;20058;-91
2021/06/12 02:03:59;;;;;;;51.97;28.73;;;17.00;99.90;;;;;;4762556;30;20138;-92
2021/06/12 02:06:47;;;;;;;46.05;27.05;;;17.00;99.90;;;;;;4775217;30;20134;-92
2021/06/12 02:09:36;;;;;;;50.40;28.75;;;17.00;99.90;;;;;;4766505;30;20149;-90
2021/06/12 02:12:23;;;;;;;46.33;25.58;;;17.00;99.90;;;;;;4787538;30;20111;-91
2021/06/12 02:15:10;;;;;;;53.60;28.30;;;17.00;99.90;;;;;;4762745;30;20143;-91
2021/06/12 02:18:03;;;;;;;50.80;28.08;;;17.00;99.90;;;;;;4786419;30;20051;-90
2021/06/12 02:20:51;;;;;;;55.20;28.88;;;16.90;99.90;;;;;;4787197;30;20057;-91
2021/06/12 02:23:37;;;;;;;62.28;30.98;;;16.90;99.90;;;;;;4774628;30;20070;-89
2021/06/12 02:26:26;;;;;;;55.80;29.60;;;16.80;99.90;;;;;;4786680;30;20059;-90
2021/06/12 02:29:12;;;;;;;53.45;29.73;;;16.80;99.90;;;;;;4774385;30;20449;-91
2021/06/12 02:32:10;;;;;;;53.83;29.65;;;16.70;99.90;;;;;;4774131;30;20059;-90
2021/06/12 02:34:56;;;;;;;56.90;29.90;;;16.60;99.90;;;;;;4773938;30;20163;-90
2021/06/12 02:37:43;;;;;;;55.17;30.50;;;16.70;99.90;;;;;;4774426;30;20078;-91
2021/06/12 02:40:29;;;;;;;46.22;27.90;;;16.60;99.90;;;;;;4768928;30;20109;-91
2021/06/12 02:43:16;;;;;;;51.72;29.20;;;16.70;99.90;;;;;;4772119;30;20409;-91
2021/06/12 02:46:04;;;;;;;52.80;29.52;;;16.70;99.90;;;;;;4761151;30;20063;-90
2021/06/12 02:49:02;;;;;;;52.65;29.55;;;16.70;99.90;;;;;;4773585;30;20066;-91
2021/06/12 02:51:52;;;;;;;46.47;26.63;;;16.70;99.90;;;;;;4785993;30;20059;-93
2021/06/12 02:54:38;;;;;;;;;;;16.70;99.90;;;;;;4774725;30;20501;-91
2021/06/12 02:57:26;;;;;;;45.47;27.05;;;16.70;99.90;;;;;;4775909;29;20394;-90
2021/06/12 03:00:13;;;;;;;47.55;26.67;;;16.70;99.90;;;;;;4773044;30;20055;-91
2021/06/12 03:03:00;;;;;;;41.30;26.23;;;16.70;99.90;;;;;;4773281;30;20141;-91
2021/06/12 03:05:56;;;;;;;42.25;25.25;;;16.70;99.90;;;;;;4762344;30;20051;-90
2021/06/12 03:08:48;;;;;;;45.20;26.33;;;16.70;99.90;;;;;;4785948;30;20181;-92
2021/06/12 03:11:23;;;;;;;;;;;16.70;99.90;;;;;;4787173;29;20047;-93
2021/06/12 03:13:53;;;;;;;48.85;26.85;;;16.70;99.90;;;;;;4786116;30;19925;-92
2021/06/12 03:16:42;;;;;;;50.38;25.98;;;16.80;99.90;;;;;;4773567;30;20577;-91
2021/06/12 03:19:29;;;;;;;50.45;27.88;;;16.70;99.90;;;;;;4760883;30;20114;-90
2021/06/12 03:22:15;;;;;;;44.20;26.02;;;16.80;99.90;;;;;;4772963;30;20404;-91
2021/06/12 03:25:07;;;;;;;48.50;26.65;;;16.70;99.90;;;;;;4740460;30;20144;-90
2021/06/12 03:27:53;;;;;;;48.10;27.85;;;16.70;99.90;;;;;;4797443;29;20051;-91
2021/06/12 03:30:20;;;;;;;47.28;28.58;;;16.70;99.90;;;;;;4784969;29;20051;-90
2021/06/12 03:32:47;;;;;;;46.80;28.30;;;16.70;99.90;;;;;;4784937;30;20519;-89
2021/06/12 03:35:13;;;;;;;48.38;27.27;;;16.80;99.90;;;;;;4784468;30;20493;-90
2021/06/12 03:37:40;;;;;;;48.78;27.35;;;16.80;99.90;;;;;;4770600;30;20062;-90
2021/06/12 03:40:08;;;;;;;50.58;28.40;;;16.70;99.90;;;;;;4770395;30;20051;-92
2021/06/12 03:42:55;;;;;;;48.67;28.42;;;16.80;99.90;;;;;;4773092;30;20062;-94
2021/06/12 03:45:27;;;;;;;44.30;26.50;;;16.70;99.90;;;;;;4785889;30;20051;-92
2021/06/12 03:48:00;;;;;;;50.10;27.75;;;16.80;99.90;;;;;;4771066;30;20059;-94
2021/06/12 03:50:46;;;;;;;;;;;16.80;99.90;;;;;;4797020;29;20057;-94
2021/06/12 03:53:43;;;;;;;43.30;26.02;;;16.80;99.90;;;;;;4773383;30;20529;-92
2021/06/12 03:56:36;;;;;;;48.10;27.08;;;16.80;99.90;;;;;;4773737;30;20158;-92
2021/06/12 03:59:23;;;;;;;42.58;25.75;;;16.80;99.90;;;;;;4773318;30;20051;-91
2021/06/12 04:02:11;;;;;;;41.05;26.15;;;16.80;99.90;;;;;;4771833;30;20061;-90
2021/06/12 04:04:57;;;;;;;43.70;26.60;;;16.90;99.90;;;;;;4785697;30;20188;-93
2021/06/12 04:07:43;;;;;;;44.22;27.30;;;16.90;99.90;;;;;;4755904;30;20138;-92
2021/06/12 04:10:30;;;;;;;51.70;27.50;;;16.90;99.90;;;;;;4786020;29;20062;-94
2021/06/12 04:13:03;;;;;;;47.20;28.40;;;16.80;99.90;;;;;;4775443;30;20507;-93
2021/06/12 04:15:30;;;;;;;47.58;26.67;;;16.90;99.90;;;;;;4804948;29;20051;-93
2021/06/12 04:18:15;;;;;;;45.45;26.73;;;16.90;99.90;;;;;;4754094;30;20689;-94
2021/06/12 04:21:03;;;;;;;43.35;25.83;;;16.90;99.90;;;;;;4777214;30;20120;-92
2021/06/12 04:23:49;;;;;;;40.20;24.67;;;16.90;99.90;;;;;;4777717;30;20149;-94
2021/06/12 04:26:35;;;;;;;40.60;23.63;;;17.00;99.90;;;;;;4764949;30;20059;-95
2021/06/12 04:29:21;;;;;;;38.75;23.63;;;17.00;99.90;;;;;;4764618;30;20058;-95
2021/06/12 04:32:07;;;;;;;37.35;23.65;;;17.00;99.90;;;;;;4764380;30;20066;-93
2021/06/12 04:34:52;;;;;;;37.38;22.90;;;17.00;99.90;;;;;;4789351;30;20087;-94
2021/06/12 04:37:38;;;;;;;33.38;22.45;;;17.10;99.90;;;;;;4764849;30;20059;-94
2021/06/12 04:40:26;;;;;;;36.78;22.92;;;17.10;99.90;;;;;;4766692;30;20078;-94
2021/06/12 04:43:12;;;;;;;37.05;23.33;;;17.10;99.90;;;;;;4776782;30;20083;-91
2021/06/12 04:45:40;;;;;;;37.65;22.30;;;17.10;99.90;;;;;;4788669;29;20051;-92
2021/06/12 04:48:18;;;;;;;34.80;22.20;;;17.10;99.90;;;;;;4761664;30;20061;-92
2021/06/12 04:50:44;;;;;;;39.92;22.85;;;17.10;99.90;;;;;;4775797;30;20309;-91
2021/06/12 04:53:11;;;;;;;38.58;23.20;;;17.10;99.90;;;;;;4788036;30;20055;-90
2021/06/12 04:55:45;;;;;;;40.05;24.65;;;17.10;99.90;;;;;;4788496;30;20049;-92
2021/06/12 04:58:14;;;;;;;38.03;23.67;;;17.20;99.90;;;;;;4787564;30;20427;-91
2021/06/12 05:00:44;;;;;;;36.33;22.65;;;17.10;99.90;;;;;;4788211;29;20055;-92
2021/06/12 05:03:16;;;;;;;36.80;22.58;;;17.20;99.90;;;;;;4788281;30;20074;-91
2021/06/12 05:05:54;;;;;;;40.47;24.00;;;17.10;99.90;;;;;;4788939;30;20051;-92
2021/06/12 05:08:24;;;;;;;40.63;23.80;;;17.20;99.90;;;;;;4770603;30;20056;-94
2021/06/12 05:11:03;;;;;;;36.47;23.13;;;17.10;99.90;;;;;;4772565;30;20047;-94
2021/06/12 05:13:31;;;;;;;30.65;19.77;;;17.20;99.90;;;;;;4772153;30;20051;-94
2021/06/12 05:15:58;;;;;;;39.80;22.07;;;17.10;99.90;;;;;;4786753;30;20082;-95
2021/06/12 05:18:47;;;;;;;32.13;19.80;;;17.20;99.90;;;;;;4787449;30;20063;-93
2021/06/12 05:21:16;;;;;;;28.63;18.70;;;17.30;99.90;;;;;;4760178;30;20086;-93
2021/06/12 05:23:47;;;;;;;29.98;19.27;;;17.20;99.90;;;;;;4789622;29;20051;-92
2021/06/12 05:26:19;;;;;;;28.02;17.33;;;17.20;99.90;;;;;;4788011;30;20189;-94
2021/06/12 05:28:45;;;;;;;25.80;15.85;;;17.20;99.90;;;;;;4788747;30;20553;-92
2021/06/12 05:31:12;;;;;;;28.15;17.25;;;17.20;99.90;;;;;;4787770;30;20043;-90
2021/06/12 05:33:40;;;;;;;25.60;14.75;;;17.20;99.90;;;;;;4758689;30;20063;-91
2021/06/12 05:36:07;;;;;;;33.00;16.23;;;17.20;99.90;;;;;;4772811;30;20081;-92
2021/06/12 05:38:35;;;;;;;23.85;13.77;;;17.30;99.90;;;;;;4773179;30;20433;-93
2021/06/12 05:41:02;;;;;;;22.17;12.65;;;17.30;99.90;;;;;;4773206;30;20507;-94
2021/06/12 05:43:31;;;;;;;25.65;13.25;;;17.30;99.90;;;;;;4787992;30;20122;-92
2021/06/12 05:45:59;;;;;;;23.45;13.85;;;17.40;99.90;;;;;;4770560;30;20146;-92
2021/06/12 05:48:30;;;;;;;21.83;13.82;;;17.40;99.90;;;;;;4784092;30;20047;-94
2021/06/12 05:50:56;;;;;;;24.23;13.18;;;17.40;99.90;;;;;;4788494;30;20101;-92
2021/06/12 05:53:25;;;;;;;18.65;10.82;;;17.50;99.90;;;;;;4788311;30;20051;-94
2021/06/12 05:55:54;;;;;;;24.75;11.57;;;17.50;99.90;;;;;;4789976;29;20058;-92
2021/06/12 05:58:20;;;;;;;20.70;11.90;;;17.50;99.90;;;;;;4788091;30;20130;-93
2021/06/12 06:00:48;;;;;;;18.23;11.02;;;17.60;99.90;;;;;;4789352;29;20051;-94
2021/06/12 06:03:24;;;;;;;18.23;11.70;;;17.60;99.90;;;;;;4787571;30;20069;-92
2021/06/12 06:05:50;;;;;;;27.50;13.10;;;17.70;99.90;;;;;;4787840;30;20079;-92
2021/06/12 06:08:16;;;;;;;17.55;10.13;;;17.70;99.90;;;;;;4788674;29;20055;-93
2021/06/12 06:10:43;;;;;;;21.20;10.05;;;17.70;99.90;;;;;;4773368;30;20048;-95
2021/06/12 06:13:19;;;;;;;16.38;8.93;;;17.70;99.90;;;;;;4774238;30;20514;-95
2021/06/12 06:15:54;;;;;;;17.83;8.77;;;17.60;99.90;;;;;;4808077;29;20050;-94
2021/06/12 06:18:25;;;;;;;13.85;7.82;;;17.60;99.90;;;;;;4788016;30;20035;-94
2021/06/12 06:20:51;;;;;;;16.70;7.78;;;17.70;99.90;;;;;;4788717;29;20054;-94
2021/06/12 06:23:17;;;;;;;13.07;6.88;;;17.70;99.90;;;;;;4772638;30;20508;-93
2021/06/12 06:25:45;;;;;;;14.55;5.97;;;17.70;99.90;;;;;;4787646;30;20466;-93
2021/06/12 06:28:11;;;;;;;14.55;6.00;;;17.60;99.90;;;;;;4787705;30;20047;-93
2021/06/12 06:30:41;;;;;;;11.32;5.15;;;17.70;99.90;;;;;;4773493;30;20043;-91
2021/06/12 06:33:10;;;;;;;9.45;4.32;;;17.40;99.90;;;;;;4787476;29;20099;-93
2021/06/12 06:35:38;;;;;;;12.02;4.35;;;17.30;99.90;;;;;;4788402;29;20059;-94
2021/06/12 06:38:14;;;;;;;8.13;3.28;;;17.30;99.90;;;;;;4775425;30;20055;-93
2021/06/12 06:40:45;;;;;;;9.68;3.05;;;17.30;99.90;;;;;;4773171;30;20051;-93
2021/06/12 06:43:16;;;;;;;8.57;3.65;;;17.30;99.90;;;;;;4788167;29;20047;-93
2021/06/12 06:45:52;;;;;;;16.92;4.75;;;17.30;99.90;;;;;;4787284;30;20051;-91
2021/06/12 06:48:22;;;;;;;;;;;17.40;99.90;;;;;;4772762;30;20058;-92
2021/06/12 06:50:48;;;;;;;8.63;3.72;;;17.40;99.90;;;;;;4787892;30;19932;-93
2021/06/12 06:53:32;;;;;;;8.10;2.80;;;17.60;99.90;;;;;;4786734;30;20051;-94
2021/06/12 06:56:02;;;;;;;10.70;3.08;;;17.50;99.90;;;;;;4751871;30;20049;-94
2021/06/12 06:58:37;;;;;;;7.45;1.88;;;17.50;99.90;;;;;;4787054;30;20039;-96
2021/06/12 07:04:43;;;;;;;8.60;2.60;;;17.60;99.90;;;;;;4739278;30;20074;-96
2021/06/12 07:07:24;;;;;;;9.45;2.10;;;17.70;99.90;;;;;;4776078;30;20108;-96
2021/06/12 07:10:03;;;;;;;4.95;2.10;;;17.80;99.90;;;;;;4776414;30;20146;-96
2021/06/12 07:12:32;;;;;;;11.10;2.20;;;17.80;99.90;;;;;;4775961;30;20399;-96
2021/06/12 07:15:12;;;;;;;6.35;2.45;;;18.00;99.90;;;;;;4763128;30;20067;-96
2021/06/12 07:18:13;;;;;;;10.35;2.38;;;18.00;99.90;;;;;;4776832;30;20059;-96
2021/06/12 07:28:01;;;;;;;10.63;3.00;;;18.00;99.90;;;;;;4782285;29;20062;-94
2021/06/12 07:31:07;;;;;;;11.98;2.38;;;18.10;99.90;;;;;;4776345;30;20048;-96
2021/06/12 07:37:13;;;;;;;6.88;2.17;;;18.10;99.90;;;;;;4771498;30;20470;-96
2021/06/12 07:43:36;;;;;;;10.65;2.38;;;18.20;99.90;;;;;;4777673;29;20050;-96
2021/06/12 07:46:18;;;;;;;4.47;1.60;;;18.20;99.90;;;;;;4766230;30;20151;-96
2021/06/12 07:49:03;;;;;;;7.53;1.83;;;18.20;99.90;;;;;;4770824;30;20051;-94
2021/06/12 07:52:05;;;;;;;6.00;1.63;;;18.30;99.90;;;;;;4785305;30;20055;-96
2021/06/12 07:54:37;;;;;;;5.32;1.35;;;18.30;99.90;;;;;;4761390;30;20055;-95
2021/06/12 07:57:18;;;;;;;4.78;1.42;;;18.30;99.90;;;;;;4760131;30;20071;-96
2021/06/12 08:02:46;;;;;;;9.18;1.90;;;18.20;99.90;;;;;;4780027;29;20151;-96
2021/06/12 08:05:32;;;;;;;4.40;1.40;;;18.20;99.90;;;;;;4772672;30;20127;-96
2021/06/12 08:07:58;;;;;;;3.92;1.30;;;18.30;99.90;;;;;;4756883;30;20124;-96
2021/06/12 08:10:31;;;;;;;4.88;1.63;;;18.30;99.90;;;;;;4741164;30;20055;-96
2021/06/12 08:13:07;;;;;;;4.82;1.30;;;18.10;99.90;;;;;;4775922;30;20052;-96
2021/06/12 08:15:47;;;;;;;;;;;;;;;;;;;;;
2021/06/12 08:18:31;;;;;;;3.13;1.35;;;18.10;99.90;;;;;;4769864;30;20409;-96
2021/06/12 08:21:03;;;;;;;8.45;1.25;;;18.20;99.90;;;;;;4756027;30;20060;-95
2021/06/12 08:23:41;;;;;;;7.85;1.17;;;18.40;99.90;;;;;;4756570;30;20490;-96
2021/06/12 08:26:21;;;;;;;5.97;1.10;;;18.40;99.90;;;;;;4788732;29;20075;-96
2021/06/12 08:28:47;;;;;;;3.92;1.13;;;18.40;99.90;;;;;;4788382;30;20117;-92
2021/06/12 08:31:16;;;;;;;3.67;1.33;;;18.60;99.90;;;;;;4773105;29;20063;-96
2021/06/12 08:33:42;;;;;;;7.95;1.50;;;18.60;99.90;;;;;;4787821;30;20063;-94
2021/06/12 08:36:08;;;;;;;3.85;1.17;;;18.40;99.90;;;;;;4788336;30;20054;-96
2021/06/12 08:38:34;;;;;;;4.53;1.20;;;18.50;99.90;;;;;;4785998;30;20050;-96
2021/06/12 08:41:00;;;;;;;6.18;1.55;;;18.30;99.90;;;;;;4787010;30;20086;-96
2021/06/12 08:43:28;;;;;;;7.72;1.42;;;18.30;99.90;;;;;;4800944;29;20104;-96
2021/06/12 08:45:58;;;;;;;3.17;0.90;;;18.30;99.90;;;;;;4785877;29;20059;-95
2021/06/12 08:48:26;;;;;;;5.93;1.30;;;18.30;99.90;;;;;;4784580;30;20446;-96
2021/06/12 08:50:56;;;;;;;6.00;1.08;;;18.40;99.90;;;;;;4785925;30;20404;-95
2021/06/12 08:53:32;;;;;;;;;;;18.40;99.90;;;;;;4787523;29;20086;-96
2021/06/12 08:56:08;;;;;;;2.83;0.90;;;18.40;99.90;;;;;;4788721;29;19949;-95
2021/06/12 08:58:36;;;;;;;4.30;1.48;;;18.50;99.90;;;;;;4774815;30;20055;-95
2021/06/12 09:01:05;;;;;;;7.00;0.95;;;18.40;99.90;;;;;;4790752;30;20051;-96
2021/06/12 09:03:56;;;;;;;5.40;1.30;;;18.40;99.90;;;;;;4776567;30;20059;-96
2021/06/12 09:06:29;;;;;;;7.65;1.17;;;18.60;99.90;;;;;;4776429;30;20050;-96
2021/06/12 09:08:57;;;;;;;3.53;1.35;;;18.40;99.90;;;;;;4793546;30;20546;-96
2021/06/12 09:12:19;;;;;;;7.25;1.33;;;18.60;99.90;;;;;;4791259;30;20049;-96
2021/06/12 09:15:17;;;;;;;12.02;1.83;;;18.40;99.90;;;;;;4775095;30;20059;-96
2021/06/12 09:17:51;;;;;;;7.80;1.75;;;18.40;99.90;;;;;;4777182;30;20059;-96
2021/06/12 09:20:51;;;;;;;5.13;1.42;;;18.60;99.90;;;;;;4789575;30;20050;-96
2021/06/12 09:23:18;;;;;;;6.47;1.08;;;18.70;99.90;;;;;;4786120;30;20114;-96
2021/06/12 09:25:57;;;;;;;5.20;1.15;;;18.90;99.90;;;;;;4791068;30;20063;-96
2021/06/12 09:28:26;;;;;;;4.63;1.15;;;18.80;99.90;;;;;;4777181;30;20571;-96
2021/06/12 09:31:04;;;;;;;7.05;1.42;;;18.90;99.90;;;;;;4778181;30;20060;-96
2021/06/12 09:33:40;;;;;;;9.45;2.28;;;18.90;99.90;;;;;;4778808;30;20137;-94
2021/06/12 09:36:23;;;;;;;5.20;1.35;;;18.60;99.90;;;;;;4779901;30;20047;-95
2021/06/12 09:38:50;;;;;;;7.30;1.02;;;18.70;99.90;;;;;;4770650;30;20055;-95
2021/06/12 09:41:46;;;;;;;9.35;1.17;;;18.50;99.90;;;;;;4792491;29;20047;-96
2021/06/12 09:44:34;;;;;;;5.72;1.40;;;18.60;99.90;;;;;;4782729;30;20059;-95
2021/06/12 09:47:16;;;;;;;4.68;1.42;;;18.60;99.90;;;;;;4791762;29;20126;-95
2021/06/12 09:49:58;;;;;;;3.15;1.20;;;18.70;99.90;;;;;;4777769;30;20112;-96
2021/06/12 09:52:39;;;;;;;9.45;1.83;;;18.80;99.90;;;;;;4790034;30;20047;-96
2021/06/12 09:55:08;;;;;;;6.30;1.17;;;18.80;99.90;;;;;;4792182;30;20050;-96
2021/06/12 09:58:01;;;;;;;2.75;1.08;;;19.00;99.90;;;;;;4759887;30;20081;-96
2021/06/12 10:04:14;;;;;;;3.95;1.33;;;18.70;99.90;;;;;;4764047;30;20122;-94
2021/06/12 10:06:43;;;;;;;14.45;1.38;;;18.70;99.90;;;;;;4792916;29;20043;-96
2021/06/12 10:09:30;;;;;;;6.03;1.07;;;18.80;99.90;;;;;;4782611;30;20188;-96
2021/06/12 10:33:09;;;;;;;;;;;;;;;;;;;;;
2021/06/12 10:40:15;;;;;;;5.40;1.65;;;19.40;99.90;;;;;;4765986;30;20055;-96
2021/06/12 10:53:52;;;;;;;11.02;1.85;;;19.50;99.90;;;;;;4767826;30;20047;-96
2021/06/12 10:56:38;;;;;;;7.65;1.70;;;19.30;99.90;;;;;;4764730;30;20090;-96
2021/06/12 11:07:07;;;;;;;11.82;1.90;;;19.10;99.90;;;;;;4774845;30;20042;-93
2021/06/12 11:10:14;;;;;;;7.70;1.40;;;19.10;99.90;;;;;;4757529;30;20055;-95
2021/06/12 11:13:38;;;;;;;7.07;1.38;;;18.90;99.90;;;;;;4786267;30;20063;-95
2021/06/12 11:20:25;;;;;;;8.50;2.22;;;18.40;99.90;;;;;;4751592;30;20093;-95
2021/06/12 11:23:08;;;;;;;12.35;1.83;;;18.50;99.90;;;;;;4743999;30;20124;-95
2021/06/12 11:25:57;;;;;;;6.10;1.85;;;18.50;99.90;;;;;;4758306;30;20070;-96
2021/06/12 11:28:27;;;;;;;11.68;1.33;;;18.80;99.90;;;;;;4773077;29;20474;-95
2021/06/12 11:31:44;;;;;;;8.85;1.33;;;18.80;99.90;;;;;;4790720;29;20151;-96
2021/06/12 11:34:24;;;;;;;7.93;1.27;;;18.80;99.90;;;;;;4763267;29;20054;-96
2021/06/12 11:37:18;;;;;;;11.02;1.38;;;18.50;99.90;;;;;;4774801;29;20077;-96
2021/06/12 11:39:50;;;;;;;5.57;1.15;;;18.60;99.90;;;;;;4767961;29;20065;-94
2021/06/12 11:42:16;;;;;;;5.95;1.13;;;18.60;99.90;;;;;;4804790;29;20404;-95
2021/06/12 11:44:52;;;;;;;10.30;2.58;;;18.70;99.90;;;;;;4760748;30;20059;-95
2021/06/12 11:47:47;;;;;;;6.38;1.17;;;19.10;99.90;;;;;;4773804;30;20047;-94
2021/06/12 11:50:14;;;;;;;6.38;1.52;;;19.10;99.90;;;;;;4787299;30;20424;-94
2021/06/12 11:52:57;;;;;;;5.25;0.98;;;19.00;99.90;;;;;;4786931;30;20398;-95
2021/06/12 11:55:26;;;;;;;8.13;1.42;;;19.10;99.90;;;;;;4772323;30;20070;-93
2021/06/12 11:57:59;;;;;;;6.68;0.90;;;19.40;99.90;;;;;;4785606;30;20055;-95
2021/06/12 12:00:45;;;;;;;11.65;2.67;;;19.50;99.90;;;;;;4782654;29;20080;-93
2021/06/12 12:03:14;;;;;;;6.63;1.05;;;19.50;99.90;;;;;;4772322;30;20069;-95
2021/06/12 12:05:48;;;;;;;9.80;0.95;;;19.30;99.90;;;;;;4771925;30;20097;-92
2021/06/12 12:08:15;;;;;;;7.75;1.20;;;19.20;99.60;;;;;;4787305;29;20059;-93
2021/06/12 12:10:45;;;;;;;9.50;1.42;;;19.10;99.90;;;;;;4786949;30;20110;-93
2021/06/12 12:13:34;;;;;;;8.80;1.27;;;19.00;99.90;;;;;;4771834;30;20055;-95
2021/06/12 12:16:04;;;;;;;11.05;1.20;;;18.80;99.90;;;;;;4772556;30;20055;-93
2021/06/12 12:18:47;;;;;;;8.68;1.00;;;19.10;99.90;;;;;;4785931;30;20476;-91
2021/06/12 12:21:13;;;;;;;5.85;1.15;;;19.20;99.90;;;;;;4776915;30;20428;-90
2021/06/12 12:23:39;;;;;;;4.55;0.85;;;19.10;99.90;;;;;;4776372;30;20089;-92
2021/06/12 12:26:14;;;;;;;8.25;1.95;;;19.20;99.90;;;;;;4785681;30;20091;-94
2021/06/12 12:29:21;;;;;;;16.08;1.83;;;18.80;99.90;;;;;;4787630;29;20063;-94
2021/06/12 12:31:53;;;;;;;6.85;1.38;;;18.90;99.90;;;;;;4790837;29;20059;-94
2021/06/12 12:37:46;;;;;;;3.33;1.10;;;18.70;99.90;;;;;;4770847;30;20124;-92
2021/06/12 12:40:22;;;;;;;6.70;1.15;;;18.80;99.90;;;;;;4790169;30;20121;-93
2021/06/12 12:43:06;;;;;;;7.03;1.55;;;18.70;99.90;;;;;;4789793;30;20584;-93
2021/06/12 12:45:49;;;;;;;5.82;1.42;;;18.80;99.90;;;;;;4790708;30;20431;-94
2021/06/12 12:48:21;;;;;;;8.13;1.80;;;18.90;99.90;;;;;;4762896;30;20062;-92
2021/06/12 12:50:53;;;;;;;7.50;1.52;;;18.80;99.90;;;;;;4788488;30;20052;-95
2021/06/12 12:53:29;;;;;;;6.40;1.40;;;19.00;99.90;;;;;;4774069;30;20075;-94
2021/06/12 12:55:59;;;;;;;8.70;1.80;;;19.10;99.90;;;;;;4758180;30;20464;-95
2021/06/12 12:58:30;;;;;;;9.10;2.03;;;19.10;99.90;;;;;;4787545;30;20492;-95
2021/06/12 13:01:14;;;;;;;7.57;1.73;;;19.10;99.90;;;;;;4770670;30;20058;-95
2021/06/12 13:03:55;;;;;;;8.52;1.80;;;18.70;99.90;;;;;;4775314;30;20059;-96
2021/06/12 13:07:04;;;;;;;5.40;1.92;;;18.50;99.90;;;;;;4761083;30;20055;-94
2021/06/12 13:09:32;;;;;;;7.38;1.42;;;18.40;99.90;;;;;;4788166;30;20477;-95
2021/06/12 13:12:06;;;;;;;14.23;2.67;;;18.10;99.90;;;;;;4789369;30;20043;-95
2021/06/12 13:14:39;;;;;;;14.70;2.20;;;18.00;99.90;;;;;;4789710;30;20068;-94
2021/06/12 13:17:25;;;;;;;12.07;1.98;;;18.10;99.90;;;;;;4789837;30;20066;-95
2021/06/12 13:19:54;;;;;;;10.75;2.00;;;18.20;99.90;;;;;;4789646;30;20058;-94
2021/06/12 13:22:46;;;;;;;11.98;2.10;;;18.50;99.90;;;;;;4775002;30;20055;-94
2021/06/12 13:25:12;;;;;;;12.43;1.73;;;18.20;99.90;;;;;;4770388;30;20095;-94
2021/06/12 13:27:54;;;;;;;17.35;2.10;;;18.00;99.90;;;;;;4774549;30;20090;-95
2021/06/12 13:30:20;;;;;;;9.07;1.88;;;17.90;99.90;;;;;;4775083;30;20116;-95
2021/06/12 13:32:50;;;;;;;17.95;2.40;;;18.20;99.90;;;;;;4761662;30;20067;-93
2021/06/12 13:35:21;;;;;;;15.75;2.10;;;18.50;99.90;;;;;;4789251;30;20070;-94
2021/06/12 13:38:24;;;;;;;9.57;2.00;;;18.70;99.90;;;;;;4774699;30;20557;-94
2021/06/12 13:40:55;;;;;;;7.18;1.75;;;18.70;99.90;;;;;;4789181;30;20074;-95
2021/06/12 13:43:27;;;;;;;12.23;1.52;;;18.90;99.90;;;;;;4787697;29;20055;-94
2021/06/12 13:46:23;;;;;;;8.07;1.88;;;18.60;99.90;;;;;;4788318;30;20059;-94
2021/06/12 13:48:52;;;;;;;10.65;2.33;;;18.70;99.90;;;;;;4771363;30;20093;-92
2021/06/12 13:51:19;;;;;;;18.30;2.30;;;18.90;99.90;;;;;;4789331;29;20047;-95
2021/06/12 13:53:56;;;;;;;11.32;2.70;;;18.80;99.90;;;;;;4773540;30;20067;-95
2021/06/12 13:56:28;;;;;;;22.30;2.70;;;19.00;99.90;;;;;;4774243;30;20105;-93
2021/06/12 13:59:03;;;;;;;11.45;2.67;;;18.90;99.90;;;;;;4788707;30;20051;-94
2021/06/12 14:01:34;;;;;;;15.13;2.67;;;19.10;99.90;;;;;;4761056;30;20067;-91
2021/06/12 14:04:03;;;;;;;12.77;2.78;;;19.10;99.90;;;;;;4787309;29;20055;-94
2021/06/12 14:06:29;;;;;;;14.23;1.95;;;18.80;99.90;;;;;;4759404;30;20059;-94
2021/06/12 14:08:58;;;;;;;10.85;2.63;;;18.70;99.90;;;;;;4772714;30;20063;-95
2021/06/12 14:11:27;;;;;;;11.77;2.25;;;18.90;99.90;;;;;;4769383;30;20051;-95
2021/06/12 14:13:53;;;;;;;19.75;3.05;;;18.60;99.90;;;;;;4771810;30;20061;-95
2021/06/12 14:16:19;;;;;;;15.13;2.88;;;18.90;99.90;;;;;;4771849;30;20134;-96
2021/06/12 14:18:44;;;;;;;12.63;2.80;;;19.00;99.90;;;;;;4772160;30;20086;-95
2021/06/12 14:21:10;;;;;;;16.40;3.30;;;18.70;99.90;;;;;;4772263;30;20416;-95
2021/06/12 14:23:41;;;;;;;16.52;3.42;;;18.90;99.90;;;;;;4787179;30;20478;-94
2021/06/12 14:26:09;;;;;;;14.55;2.92;;;18.30;99.90;;;;;;4771042;30;20051;-94
2021/06/12 14:28:35;;;;;;;19.25;3.33;;;18.30;99.90;;;;;;4756070;30;20512;-93
2021/06/12 14:31:01;;;;;;;18.38;3.85;;;18.50;99.90;;;;;;4785085;29;20104;-92
2021/06/12 14:33:28;;;;;;;21.15;3.03;;;18.70;99.90;;;;;;4769272;30;20558;-93
2021/06/12 14:35:54;;;;;;;15.30;3.78;;;19.20;99.90;;;;;;4769724;30;20065;-92
2021/06/12 14:38:19;;;;;;;21.38;4.63;;;18.80;99.90;;;;;;4784373;30;20051;-92
2021/06/12 14:40:45;;;;;;;7.22;2.38;;;19.00;99.90;;;;;;4783974;30;20109;-92
2021/06/12 14:43:11;;;;;;;20.40;3.40;;;18.80;99.90;;;;;;4772466;30;20056;-93
2021/06/12 14:45:37;;;;;;;13.60;3.30;;;18.70;99.90;;;;;;4787377;29;20062;-92
2021/06/12 14:48:03;;;;;;;20.35;4.05;;;18.50;99.90;;;;;;4786212;30;20054;-92
2021/06/12 14:50:29;;;;;;;19.60;3.72;;;18.50;99.90;;;;;;4802251;29;20055;-93